createdAt,value
2022-09-23T00:03:00.036Z,98853.88
2022-09-23T00:06:10.884Z,98860.31
2022-09-23T00:09:12.923Z,98856.13
2022-09-23T00:12:14.951Z,98867.13
2022-09-23T00:15:17.682Z,98867.00
2022-09-23T00:18:20.850Z,98864.03
2022-09-23T00:21:23.074Z,98859.22
2022-09-23T00:24:25.225Z,98861.81
2022-09-23T00:27:27.279Z,98859.75
2022-09-23T00:30:31.271Z,98867.13
2022-09-23T00:33:33.354Z,98868.31
2022-09-23T00:36:35.449Z,98871.41
2022-09-23T00:39:37.581Z,98876.03
2022-09-23T00:42:49.481Z,98875.59
2022-09-23T00:45:51.566Z,98869.00
2022-09-23T00:49:08.904Z,98869.81
2022-09-23T00:52:15.407Z,98865.69
2022-09-23T00:55:25.347Z,98871.66
2022-09-23T00:58:31.241Z,98870.16
2022-09-23T01:01:33.445Z,98873.50
2022-09-23T01:04:35.551Z,98867.28
2022-09-23T01:07:37.619Z,98880.53
2022-09-23T01:11:06.173Z,98876.38
2022-09-23T01:14:43.275Z,98868.44
2022-09-23T01:18:21.821Z,98872.34
2022-09-23T01:21:36.174Z,98868.97
2022-09-23T01:24:46.811Z,98875.88
2022-09-23T01:28:07.041Z,98871.38
2022-09-23T01:31:27.229Z,98876.94
2022-09-23T01:34:55.909Z,98863.00
2022-09-23T01:38:12.196Z,98858.44
2022-09-23T01:41:21.700Z,98861.19
2022-09-23T01:44:51.354Z,98859.75
2022-09-23T01:47:58.365Z,98861.75
2022-09-23T01:51:14.085Z,98849.78
2022-09-23T01:54:36.530Z,98854.72
2022-09-23T01:57:53.422Z,98858.31
2022-09-23T02:01:00.694Z,98870.28
2022-09-23T02:04:25.996Z,98865.69
2022-09-23T02:07:36.285Z,98855.44
2022-09-23T02:10:53.259Z,98855.53
2022-09-23T02:14:15.499Z,98844.97
2022-09-23T02:17:54.284Z,98851.63
2022-09-23T02:21:08.773Z,98852.06
2022-09-23T02:24:30.030Z,98852.91
2022-09-23T02:27:40.520Z,98848.63
2022-09-23T02:30:50.526Z,98853.00
2022-09-23T02:34:14.994Z,98845.84
2022-09-23T02:37:32.808Z,98844.03
2022-09-23T02:40:38.889Z,98846.88
2022-09-23T02:43:52.035Z,98853.47
2022-09-23T02:46:54.692Z,98845.06
2022-09-23T02:49:56.748Z,98854.75
2022-09-23T02:52:59.996Z,98856.00
2022-09-23T02:56:03.364Z,98857.75
2022-09-23T02:59:06.183Z,98855.97
2022-09-23T03:02:14.248Z,98852.56
2022-09-23T03:05:25.596Z,98849.78
2022-09-23T03:08:37.287Z,98861.53
2022-09-23T03:11:42.310Z,98855.22
2022-09-23T03:14:54.974Z,98859.81
2022-09-23T03:18:16.853Z,98869.00
2022-09-23T03:21:41.736Z,98855.88
2022-09-23T03:24:44.905Z,98856.00
2022-09-23T03:27:47.162Z,98853.03
2022-09-23T03:30:51.110Z,98855.41
2022-09-23T03:33:55.971Z,98865.22
2022-09-23T03:37:24.327Z,98855.66
2022-09-23T03:40:35.351Z,98854.75
2022-09-23T03:43:38.974Z,98864.28
2022-09-23T03:46:42.910Z,98856.69
2022-09-23T03:49:48.484Z,98855.56
2022-09-23T03:52:50.647Z,98859.22
2022-09-23T03:55:52.755Z,98862.41
2022-09-23T03:58:54.838Z,98852.63
2022-09-23T04:01:57.253Z,98858.88
2022-09-23T04:04:59.410Z,98859.44
2022-09-23T04:08:01.883Z,98849.78
2022-09-23T04:11:04.792Z,98856.13
2022-09-23T04:14:07.237Z,98854.94
2022-09-23T04:17:09.408Z,98860.34
2022-09-23T04:20:11.472Z,98863.19
2022-09-23T04:23:13.576Z,98853.75
2022-09-23T04:26:15.922Z,98861.97
2022-09-23T04:29:18.128Z,98864.91
2022-09-23T04:32:20.206Z,98860.88
2022-09-23T04:35:22.332Z,98856.72
2022-09-23T04:38:24.402Z,98860.81
2022-09-23T04:41:26.487Z,98862.78
2022-09-23T04:44:29.568Z,98860.41
2022-09-23T04:47:32.736Z,98867.09
2022-09-23T04:50:34.943Z,98873.00
2022-09-23T04:53:37.884Z,98869.19
2022-09-23T04:56:40.119Z,98878.81
2022-09-23T04:59:42.151Z,98867.34
2022-09-23T05:02:48.867Z,98870.78
2022-09-23T05:05:51.061Z,98866.09
2022-09-23T05:08:54.691Z,98868.91
2022-09-23T05:11:56.775Z,98868.34
2022-09-23T05:14:59.622Z,98872.59
2022-09-23T05:18:02.606Z,98867.28
2022-09-23T05:21:04.767Z,98876.75
2022-09-23T05:24:06.963Z,98880.97
2022-09-23T05:27:09.372Z,98876.00
2022-09-23T05:30:11.774Z,98880.31
2022-09-23T05:33:14.239Z,98876.75
2022-09-23T05:36:19.966Z,98880.78
2022-09-23T05:39:22.011Z,98888.34
2022-09-23T05:42:24.138Z,98883.66
2022-09-23T05:45:26.984Z,98882.50
2022-09-23T05:48:34.563Z,98894.59
2022-09-23T05:51:36.807Z,98882.63
2022-09-23T05:54:39.280Z,98890.63
2022-09-23T05:57:41.359Z,98887.63
2022-09-23T06:00:44.138Z,98897.97
2022-09-23T06:03:49.858Z,98890.34
2022-09-23T06:06:51.996Z,98890.19
2022-09-23T06:09:54.317Z,98902.13
2022-09-23T06:12:56.475Z,98907.31
2022-09-23T06:15:58.749Z,98912.31
2022-09-23T06:19:05.972Z,98911.22
2022-09-23T06:22:08.756Z,98917.69
2022-09-23T06:25:11.301Z,98903.22
2022-09-23T06:28:14.539Z,98897.75
2022-09-23T06:31:17.100Z,98906.13
2022-09-23T06:34:19.688Z,98921.88
2022-09-23T06:37:22.090Z,98920.72
2022-09-23T06:40:24.279Z,98917.22
2022-09-23T06:43:26.919Z,98918.03
2022-09-23T06:46:31.292Z,98926.84
2022-09-23T06:49:33.934Z,98926.53
2022-09-23T06:52:37.037Z,98919.63
2022-09-23T06:55:39.138Z,98925.88
2022-09-23T06:58:41.341Z,98933.13
2022-09-23T07:01:45.326Z,98938.31
2022-09-23T07:04:47.513Z,98939.56
2022-09-23T07:07:49.572Z,98935.78
2022-09-23T07:10:53.432Z,98933.03
2022-09-23T07:13:55.562Z,98942.38
2022-09-23T07:16:59.954Z,98940.31
2022-09-23T07:20:02.366Z,98933.63
2022-09-23T07:23:04.430Z,98949.47
2022-09-23T07:26:07.875Z,98947.28
2022-09-23T07:29:13.311Z,98952.34
2022-09-23T07:32:15.526Z,98955.53
2022-09-23T07:35:17.830Z,98961.38
2022-09-23T07:38:19.994Z,98960.06
2022-09-23T07:41:22.054Z,98964.44
2022-09-23T07:44:25.572Z,98959.25
2022-09-23T07:47:27.661Z,98959.56
2022-09-23T07:50:31.885Z,98956.34
2022-09-23T07:53:33.993Z,98958.13
2022-09-23T07:56:36.617Z,98961.59
2022-09-23T07:59:39.524Z,98964.81
2022-09-23T08:02:41.978Z,98962.03
2022-09-23T08:05:44.124Z,98961.06
2022-09-23T08:08:51.166Z,98965.94
2022-09-23T08:11:55.324Z,98965.38
2022-09-23T08:14:57.838Z,98964.84
2022-09-23T08:18:00.520Z,98965.38
2022-09-23T08:21:02.864Z,98961.00
2022-09-23T08:24:12.750Z,98966.19
2022-09-23T08:27:14.811Z,98960.72
2022-09-23T08:30:16.899Z,98975.28
2022-09-23T08:33:23.128Z,98970.56
2022-09-23T08:36:25.963Z,98950.47
2022-09-23T08:39:28.043Z,98972.97
2022-09-23T08:42:32.602Z,98975.44
2022-09-23T08:45:35.135Z,98976.25
2022-09-23T08:48:42.752Z,98980.38
2022-09-23T08:51:46.536Z,98977.59
2022-09-23T08:54:53.184Z,98979.25
2022-09-23T08:58:25.629Z,98980.25
2022-09-23T09:01:40.633Z,98980.59
2022-09-23T09:04:44.554Z,98982.78
2022-09-23T09:07:46.690Z,98986.50
2022-09-23T09:10:48.755Z,98976.03
2022-09-23T09:14:39.127Z,98978.66
2022-09-23T09:18:07.840Z,98983.91
2022-09-23T09:21:13.240Z,98977.84
2022-09-23T09:24:25.083Z,98978.81
2022-09-23T09:27:27.158Z,98985.34
2022-09-23T09:30:29.228Z,98973.63
2022-09-23T09:33:58.779Z,98975.03
2022-09-23T09:37:35.837Z,98980.97
2022-09-23T09:40:37.917Z,98976.31
2022-09-23T09:43:44.182Z,98973.81
2022-09-23T09:47:40.574Z,98977.75
2022-09-23T09:50:52.623Z,98982.34
2022-09-23T09:53:56.068Z,98961.00
2022-09-23T09:56:58.239Z,98974.44
2022-09-23T10:00:22.113Z,98965.53
2022-09-23T10:03:39.041Z,98970.91
2022-09-23T10:06:41.960Z,98968.53
2022-09-23T10:09:51.161Z,98966.00
2022-09-23T10:12:53.301Z,98975.97
2022-09-23T10:15:56.758Z,98974.66
2022-09-23T10:19:00.432Z,98977.03
2022-09-23T10:22:22.499Z,98963.22
2022-09-23T10:25:26.603Z,98980.00
2022-09-23T10:28:48.678Z,98978.00
2022-09-23T10:31:53.798Z,98973.59
2022-09-23T10:35:13.363Z,98978.94
2022-09-23T10:38:15.455Z,98983.53
2022-09-23T10:41:56.581Z,98975.31
2022-09-23T10:45:39.767Z,98975.84
2022-09-23T10:49:12.243Z,98974.25
2022-09-23T10:52:36.278Z,98968.34
2022-09-23T10:55:56.865Z,98965.41
2022-09-23T10:59:28.039Z,98958.81
2022-09-23T11:03:04.352Z,98967.00
2022-09-23T11:06:25.098Z,98964.22
2022-09-23T11:09:51.774Z,98966.41
2022-09-23T11:13:24.605Z,98965.09
2022-09-23T11:17:06.036Z,98960.66
2022-09-23T11:20:48.747Z,98958.91
2022-09-23T11:24:07.370Z,98965.28
2022-09-23T11:27:50.744Z,98955.19
2022-09-23T11:31:14.652Z,98964.63
2022-09-23T11:34:40.630Z,98955.66
2022-09-23T11:37:49.145Z,98954.63
2022-09-23T11:40:54.885Z,98973.91
2022-09-23T11:44:14.446Z,98957.38
2022-09-23T11:47:39.808Z,98959.75
2022-09-23T11:51:05.376Z,98958.44
2022-09-23T11:54:25.102Z,98957.31
2022-09-23T11:58:01.050Z,98954.16
2022-09-23T12:01:14.564Z,98945.06
2022-09-23T12:04:51.967Z,98952.81
2022-09-23T12:08:39.177Z,98958.16
2022-09-23T12:12:09.806Z,98952.03
2022-09-23T12:15:41.303Z,98946.13
2022-09-23T12:19:11.186Z,98944.94
2022-09-23T12:22:54.300Z,98936.47
2022-09-23T12:26:01.802Z,98947.22
2022-09-23T12:29:04.922Z,98934.34
2022-09-23T12:32:09.949Z,98936.13
2022-09-23T12:35:38.610Z,98936.31
2022-09-23T12:39:02.168Z,98930.38
2022-09-23T12:42:06.773Z,98933.47
2022-09-23T12:45:31.449Z,98935.66
2022-09-23T12:48:54.475Z,98935.41
2022-09-23T12:52:17.643Z,98928.66
2022-09-23T12:55:23.254Z,98920.47
2022-09-23T12:58:43.332Z,98937.06
2022-09-23T13:01:45.547Z,98927.44
2022-09-23T13:05:27.023Z,98923.84
2022-09-23T13:08:29.121Z,98913.66
2022-09-23T13:11:31.275Z,98913.94
2022-09-23T13:14:33.352Z,98900.34
2022-09-23T13:17:39.806Z,98898.16
2022-09-23T13:20:41.877Z,98919.69
2022-09-23T13:24:12.713Z,98921.81
2022-09-23T13:27:18.602Z,98908.34
2022-09-23T13:30:26.480Z,98916.59
2022-09-23T13:33:49.289Z,98902.31
2022-09-23T13:36:51.516Z,98917.88
2022-09-23T13:39:53.600Z,98914.84
2022-09-23T13:43:04.902Z,98915.97
2022-09-23T13:46:13.430Z,98916.69
2022-09-23T13:49:41.560Z,98916.63
2022-09-23T13:52:43.602Z,98912.97
2022-09-23T13:55:50.215Z,98890.63
2022-09-23T13:58:55.899Z,98901.22
2022-09-23T14:02:12.616Z,98901.06
2022-09-23T14:05:23.811Z,98886.88
2022-09-23T14:08:26.505Z,98897.78
2022-09-23T14:11:33.486Z,98903.31
2022-09-23T14:14:37.128Z,98900.19
2022-09-23T14:17:39.190Z,98896.91
2022-09-23T14:20:50.602Z,98895.56
2022-09-23T14:24:05.076Z,98881.38
2022-09-23T14:27:07.025Z,98875.03
2022-09-23T14:30:17.913Z,98881.34
2022-09-23T14:33:28.247Z,98889.69
2022-09-23T14:36:49.104Z,98888.31
2022-09-23T14:39:54.557Z,98876.31
2022-09-23T14:43:22.638Z,98880.06
2022-09-23T14:46:36.021Z,98876.31
2022-09-23T14:49:58.038Z,98861.78
2022-09-23T14:53:00.746Z,98862.75
2022-09-23T14:56:12.680Z,98850.16
2022-09-23T14:59:49.012Z,98869.56
2022-09-23T15:03:13.030Z,98863.22
2022-09-23T15:06:15.147Z,98871.59
2022-09-23T15:09:21.806Z,98874.03
2022-09-23T15:12:23.883Z,98876.97
2022-09-23T15:15:28.180Z,98863.16
2022-09-23T15:18:35.687Z,98861.78
2022-09-23T15:21:41.128Z,98867.63
2022-09-23T15:24:46.466Z,98879.31
2022-09-23T15:28:16.855Z,98874.84
2022-09-23T15:31:20.406Z,98883.53
2022-09-23T15:34:22.490Z,98872.69
2022-09-23T15:37:24.556Z,98870.41
2022-09-23T15:40:28.487Z,98864.66
2022-09-23T15:43:34.570Z,98864.13
2022-09-23T15:46:38.504Z,98862.09
2022-09-23T15:49:40.702Z,98867.72
2022-09-23T15:52:45.082Z,98859.78
2022-09-23T15:55:47.509Z,98861.06
2022-09-23T15:58:49.607Z,98876.59
2022-09-23T16:01:52.362Z,98878.91
2022-09-23T16:04:54.628Z,98879.88
2022-09-23T16:07:56.673Z,98868.84
2022-09-23T16:10:59.068Z,98875.41
2022-09-23T16:14:01.301Z,98867.38
2022-09-23T16:17:03.610Z,98867.66
2022-09-23T16:20:06.207Z,98869.56
2022-09-23T16:23:18.181Z,98874.63
2022-09-23T16:26:31.149Z,98878.34
2022-09-23T16:29:33.202Z,98870.47
2022-09-23T16:32:35.332Z,98879.88
2022-09-23T16:35:37.392Z,98877.19
2022-09-23T16:38:39.508Z,98884.28
2022-09-23T16:41:42.852Z,98885.81
2022-09-23T16:44:44.976Z,98885.66
2022-09-23T16:47:48.705Z,98888.63
2022-09-23T16:50:54.730Z,98893.88
2022-09-23T16:53:57.993Z,98881.22
2022-09-23T16:57:00.067Z,98889.16
2022-09-23T17:00:21.841Z,98892.13
2022-09-23T17:03:42.362Z,98899.66
2022-09-23T17:06:47.263Z,98895.09
2022-09-23T17:09:50.658Z,98894.91
2022-09-23T17:12:54.695Z,98892.75
2022-09-23T17:15:56.918Z,98892.44
2022-09-23T17:18:59.120Z,98894.13
2022-09-23T17:22:01.189Z,98899.75
2022-09-23T17:25:05.004Z,98899.22
2022-09-23T17:28:07.056Z,98899.28
2022-09-23T17:31:09.440Z,98900.81
2022-09-23T17:34:11.695Z,98897.81
2022-09-23T17:37:13.719Z,98901.53
2022-09-23T17:40:15.965Z,98898.22
2022-09-23T17:43:23.723Z,98902.88
2022-09-23T17:46:25.883Z,98899.03
2022-09-23T17:49:30.974Z,98913.31
2022-09-23T17:52:33.090Z,98906.59
2022-09-23T17:55:35.128Z,98916.13
2022-09-23T17:58:37.515Z,98913.44
2022-09-23T18:01:39.809Z,98913.09
2022-09-23T18:04:41.886Z,98915.19
2022-09-23T18:07:43.943Z,98917.38
2022-09-23T18:10:46.031Z,98919.47
2022-09-23T18:14:12.223Z,98932.28
2022-09-23T18:17:14.350Z,98919.47
2022-09-23T18:20:16.965Z,98935.19
2022-09-23T18:23:21.825Z,98944.13
2022-09-23T18:26:27.558Z,98944.53
2022-09-23T18:29:29.652Z,98946.38
2022-09-23T18:32:32.183Z,98957.50
2022-09-23T18:35:34.271Z,98956.59
2022-09-23T18:38:36.354Z,98965.78
2022-09-23T18:41:38.438Z,98967.38
2022-09-23T18:44:41.354Z,98975.69
2022-09-23T18:48:02.341Z,98972.38
2022-09-23T18:51:07.245Z,98972.50
2022-09-23T18:54:09.380Z,98969.25
2022-09-23T18:57:14.778Z,98975.38
2022-09-23T19:00:16.971Z,98980.03
2022-09-23T19:03:19.075Z,98990.59
2022-09-23T19:06:21.412Z,98985.44
2022-09-23T19:09:23.810Z,98989.69
2022-09-23T19:12:25.938Z,98983.28
2022-09-23T19:15:28.120Z,98985.16
2022-09-23T19:18:31.584Z,98984.13
2022-09-23T19:21:34.062Z,98983.13
2022-09-23T19:24:36.148Z,98975.63
2022-09-23T19:27:39.443Z,98979.81
2022-09-23T19:30:41.622Z,98980.84
2022-09-23T19:33:47.351Z,98984.22
2022-09-23T19:36:56.301Z,98987.25
2022-09-23T19:39:58.430Z,98979.75
2022-09-23T19:43:00.619Z,98984.09
2022-09-23T19:46:04.036Z,98986.75
2022-09-23T19:49:07.108Z,98990.22
2022-09-23T19:52:09.281Z,98986.44
2022-09-23T19:55:11.612Z,98986.91
2022-09-23T19:58:14.327Z,98996.75
2022-09-23T20:01:16.489Z,98991.34
2022-09-23T20:04:18.627Z,98994.91
2022-09-23T20:07:20.658Z,99000.75
2022-09-23T20:10:22.862Z,98998.28
2022-09-23T20:13:24.903Z,98997.59
2022-09-23T20:16:28.790Z,98997.66
2022-09-23T20:19:30.983Z,99006.50
2022-09-23T20:22:34.138Z,99002.56
2022-09-23T20:25:54.909Z,99002.28
2022-09-23T20:28:57.027Z,99009.41
2022-09-23T20:31:59.270Z,99003.75
2022-09-23T20:35:01.352Z,99005.84
2022-09-23T20:38:07.858Z,99000.78
2022-09-23T20:41:10.218Z,99006.41
2022-09-23T20:44:12.808Z,99005.06
2022-09-23T20:47:17.182Z,99000.91
2022-09-23T20:50:19.490Z,98996.38
2022-09-23T20:53:23.328Z,98997.31
2022-09-23T20:56:25.707Z,98996.28
2022-09-23T20:59:28.057Z,98989.00
2022-09-23T21:02:30.169Z,98981.16
2022-09-23T21:05:34.673Z,98987.06
2022-09-23T21:08:37.303Z,98994.78
2022-09-23T21:11:39.343Z,98982.63
2022-09-23T21:14:41.429Z,98982.66
2022-09-23T21:17:43.558Z,98985.94
2022-09-23T21:20:55.247Z,98990.31
2022-09-23T21:24:11.680Z,98991.97
2022-09-23T21:27:19.849Z,98996.69
2022-09-23T21:30:22.772Z,98990.13
2022-09-23T21:33:25.540Z,98999.00
2022-09-23T21:36:29.136Z,98989.78
2022-09-23T21:39:31.213Z,98983.44
2022-09-23T21:42:33.303Z,98987.34
2022-09-23T21:45:35.370Z,98988.53
2022-09-23T21:48:41.202Z,98986.75
2022-09-23T21:51:43.302Z,98994.19
2022-09-23T21:54:46.570Z,98993.50
2022-09-23T21:57:49.025Z,98993.97
2022-09-23T22:00:51.379Z,98999.28
2022-09-23T22:03:58.468Z,98996.56
2022-09-23T22:07:01.370Z,99005.34
2022-09-23T22:10:03.950Z,98997.53
2022-09-23T22:13:12.532Z,98991.44
2022-09-23T22:16:16.735Z,98997.19
2022-09-23T22:19:19.198Z,98999.59
2022-09-23T22:22:21.649Z,98998.69
2022-09-23T22:25:24.483Z,98998.56
2022-09-23T22:28:47.655Z,98999.84
2022-09-23T22:32:08.426Z,98995.59
2022-09-23T22:35:19.925Z,99002.50
2022-09-23T22:38:22.040Z,98992.13
2022-09-23T22:41:25.600Z,98991.53
2022-09-23T22:44:29.409Z,98989.13
2022-09-23T22:47:37.575Z,99000.16
2022-09-23T22:50:39.861Z,98998.19
2022-09-23T22:53:41.935Z,98994.13
2022-09-23T22:56:44.065Z,98989.47
2022-09-23T22:59:48.257Z,98995.09
2022-09-23T23:02:50.581Z,99000.59
2022-09-23T23:05:57.442Z,98994.63
2022-09-23T23:09:00.054Z,98996.22
2022-09-23T23:12:02.721Z,98990.03
2022-09-23T23:15:05.306Z,99001.63
2022-09-23T23:18:07.387Z,98993.25
2022-09-23T23:21:14.705Z,98992.53
2022-09-23T23:24:19.362Z,98987.06
2022-09-23T23:27:21.459Z,98986.56
2022-09-23T23:30:23.946Z,98996.50
2022-09-23T23:33:26.079Z,98984.44
2022-09-23T23:36:28.457Z,98990.72
2022-09-23T23:39:30.671Z,98987.78
2022-09-23T23:42:32.967Z,98992.16
2022-09-23T23:45:35.481Z,98981.72
2022-09-23T23:48:37.847Z,98993.84
2022-09-23T23:51:41.158Z,98990.59
2022-09-23T23:54:43.259Z,98993.88
2022-09-23T23:57:45.322Z,98993.72
